FMEP

Pierrefonds Airport

St Pierre, Reunion
METAR FMEP 151830Z AUTO 08004KT 050V110 CAVOK 26/20 Q1015
Observed Flight Rules
Feb-15 @ 18:30 UTC (37 minutes ago) Visual Flight Rules
Wind Visibility Clouds
80° at 4 knots 10,000+ meters
  • Clear skies
Temperatures Readings
Current 26°C / 79°F
Dewpoint 20°C / 68°F
Humidity 70%
Altimeter 29.97" Hg
Pressure 1014.92 hPa
Elevation 18
METAR FMEP 151830Z AUTO 08004KT 050V110 CAVOK 26/20 Q1015
Observed Flight Rules
Feb-15 @ 18:30 UTC
(37 minutes ago)
VFR
Wind Visibility
80° at 4 knots 10,000+ meters
Clouds
  • Clear skies
Temperature Dewpoint
26°C / 79°F 20°C / 68°F
Humidity Altimeter Pressure
70% 29.97" Hg 1014.92 hPa